Página principal
METAR-TAF:

METAR-TAF

Aeroportos :

Aeródromo Municipal de Cascais (Tires)

Cascais, Portugal

latitude: 38-43-32N, longitude: 009-21-19W, altura: 99 m

Observação actual do tempo

O boletim foi feito há 18 minutos, às 11:00 UTC
Vento 4 kt de es-nordeste, variando entre norte e sudeste
Temperatura 33°C
Humidade 23%
Pressão 1016 hPa
Visibilidade 10 km ou mais
sem nuvens abaixo de 1500 metros e sem cumulonimbus

METAR: LPCS 191100Z 07004KT 350V130 CAVOK 33/09 Q1016

Hora: 12:18 (11:18 UTC)


TAF: em falta

Observações e previsões do tempo de mais de 4000 aeroportos (mensagens METAR e TAF).

As estações disponíveis são os pontos amarelos e vermelhos sobre o mapa.

Mova o rato sobre o mapa para ver o nome da estação.

Depois clique no ponto para visualizar as observações e previsões meteorológicas.

Para alterar o mapa : clique nos botões verdes com uma cruz preta para aumentar o zoom; no botão verde com uma pitada de zoom; ou nas setas verdes para mapas adjacentes.


METAR-TAF: